Terminal Aerodrome Forecast
Issued by NWS

Home | Current Version | Previous Version | Text Only | Print | Product List | Glossary On
Versions: 1 2 3 4 5 6 7 8 9 10 11 12 13 14 15 16 17 18 19 20 21 22 23 24 25 26 27 28 29 30 31
000
FTUS42 KGSP 290557 CCA
TAFHKY
TAF COR
KHKY 290557Z 2906/3006 00000KT 1/4SM -RA FG VV003
      TEMPO 2906/2910 1/2SM RA FG OVC005
     FM291500 06004KT 2SM BR VCSH OVC004
     FM291700 05003KT 4SM BR VCSH OVC007
     FM292100 00000KT P6SM OVC006=

USA.gov is the U.S. government's official web portal to all federal, state and local government web resources and services.